Terminal Aerodrome Forecast
Issued by NWS Dodge City, KS

Home | Current Version | Previous Version | Graphics & Text | Print | Product List | Glossary Off
Versions: 1 2 3 4 5 6 7 8 9 10 11 12 13 14 15 16 17 18 19 20 21 22 23 24 25 26 27 28 29 30 31 32 33 34

000
FTUS43 KDDC 161120
TAFDDC
TAF
KDDC 161120Z 1612/1712 22013KT P6SM SKC
     FM161500 18015G25KT P6SM SKC
     FM162300 16010G20KT P6SM SCT250
     FM170600 15008KT P6SM OVC150
     FM171100 34010G20KT 5SM BR OVC020=

USA.gov is the U.S. government's official web portal to all federal, state and local government web resources and services.